createdAt,value
2022-10-19T00:01:15.769Z,101920.50
2022-10-19T00:03:45.090Z,101922.44
2022-10-19T00:06:27.027Z,101924.41
2022-10-19T00:09:02.881Z,101922.78
2022-10-19T00:11:33.337Z,101915.66
2022-10-19T00:14:01.320Z,101915.81
2022-10-19T00:16:32.253Z,101920.34
2022-10-19T00:19:02.948Z,101921.31
2022-10-19T00:21:30.647Z,101915.25
2022-10-19T00:23:57.968Z,101921.72
2022-10-19T00:26:27.930Z,101911.03
2022-10-19T00:28:56.882Z,101909.41
2022-10-19T00:31:24.822Z,101900.44
2022-10-19T00:33:53.013Z,101904.00
2022-10-19T00:36:24.489Z,101910.38
2022-10-19T00:38:52.725Z,101913.16
2022-10-19T00:41:22.354Z,101907.97
2022-10-19T00:44:30.233Z,101901.25
2022-10-19T00:47:02.967Z,101893.28
2022-10-19T00:49:36.195Z,101895.19
2022-10-19T00:52:12.275Z,101906.97
2022-10-19T00:54:42.449Z,101896.38
2022-10-19T00:57:11.107Z,101895.59
2022-10-19T00:59:40.297Z,101904.69
2022-10-19T01:02:07.627Z,101893.22
2022-10-19T01:04:38.748Z,101895.16
2022-10-19T01:07:08.170Z,101890.81
2022-10-19T01:09:35.287Z,101889.22
2022-10-19T01:12:20.288Z,101888.44
2022-10-19T01:14:59.157Z,101888.63
2022-10-19T01:18:10.253Z,101887.84
2022-10-19T01:21:17.439Z,101882.66
2022-10-19T01:24:08.624Z,101893.56
2022-10-19T01:27:06.696Z,101891.94
2022-10-19T01:30:08.264Z,101884.81
2022-10-19T01:33:13.261Z,101887.72
2022-10-19T01:35:58.321Z,101882.41
2022-10-19T01:38:51.458Z,101879.03
2022-10-19T01:41:28.842Z,101876.34
2022-10-19T01:44:15.445Z,101881.00
2022-10-19T01:46:49.923Z,101871.94
2022-10-19T01:49:39.061Z,101869.34
2022-10-19T01:52:09.590Z,101866.66
2022-10-19T01:54:43.483Z,101865.88
2022-10-19T01:57:14.810Z,101868.66
2022-10-19T01:59:42.862Z,101863.16
2022-10-19T02:02:13.451Z,101858.84
2022-10-19T02:04:41.409Z,101858.06
2022-10-19T02:07:09.028Z,101859.81
2022-10-19T02:09:36.302Z,101861.84
2022-10-19T02:12:09.071Z,101854.81
2022-10-19T02:14:44.887Z,101863.75
2022-10-19T02:17:17.850Z,101861.06
2022-10-19T02:19:45.274Z,101862.13
2022-10-19T02:22:13.948Z,101856.94
2022-10-19T02:24:40.948Z,101851.72
2022-10-19T02:27:08.800Z,101854.34
2022-10-19T02:29:37.696Z,101849.03
2022-10-19T02:32:06.156Z,101855.41
2022-10-19T02:34:34.009Z,101854.63
2022-10-19T02:37:01.032Z,101848.50
2022-10-19T02:39:28.179Z,101842.25
2022-10-19T02:42:07.613Z,101842.25
2022-10-19T02:44:48.150Z,101838.56
2022-10-19T02:47:43.765Z,101838.69
2022-10-19T02:50:11.942Z,101836.00
2022-10-19T02:52:40.788Z,101831.63
2022-10-19T02:55:09.205Z,101833.53
2022-10-19T02:57:37.034Z,101834.72
2022-10-19T03:00:09.069Z,101835.69
2022-10-19T03:02:36.106Z,101840.19
2022-10-19T03:05:04.306Z,101834.03
2022-10-19T03:07:31.364Z,101830.56
2022-10-19T03:09:58.537Z,101831.53
2022-10-19T03:12:25.639Z,101835.19
2022-10-19T03:14:52.533Z,101837.97
2022-10-19T03:17:19.885Z,101833.56
2022-10-19T03:19:46.817Z,101840.00
2022-10-19T03:22:15.105Z,101832.91
2022-10-19T03:24:42.147Z,101837.50
2022-10-19T03:27:09.141Z,101827.72
2022-10-19T03:29:36.044Z,101830.41
2022-10-19T03:32:03.132Z,101834.03
2022-10-19T03:34:30.014Z,101843.94
2022-10-19T03:36:59.172Z,101841.38
2022-10-19T03:39:26.334Z,101846.75
2022-10-19T03:41:53.320Z,101839.63
2022-10-19T03:44:20.322Z,101843.28
2022-10-19T03:46:47.349Z,101838.00
2022-10-19T03:49:14.362Z,101837.22
2022-10-19T03:51:41.612Z,101848.19
2022-10-19T03:54:14.752Z,101838.47
2022-10-19T03:56:42.900Z,101837.78
2022-10-19T03:59:14.681Z,101842.44
2022-10-19T04:01:45.536Z,101843.47
2022-10-19T04:04:16.574Z,101847.13
2022-10-19T04:06:46.867Z,101849.06
2022-10-19T04:09:17.973Z,101851.75
2022-10-19T04:11:45.032Z,101840.97
2022-10-19T04:14:19.326Z,101838.38
2022-10-19T04:16:54.136Z,101827.69
2022-10-19T04:19:20.975Z,101829.63
2022-10-19T04:21:49.625Z,101831.56
2022-10-19T04:24:18.974Z,101832.50
2022-10-19T04:26:52.324Z,101827.31
2022-10-19T04:29:24.963Z,101826.56
2022-10-19T04:31:55.018Z,101823.00
2022-10-19T04:34:22.127Z,101824.91
2022-10-19T04:36:49.003Z,101833.94
2022-10-19T04:39:16.019Z,101831.25
2022-10-19T04:41:42.925Z,101832.31
2022-10-19T04:44:10.164Z,101826.94
2022-10-19T04:46:38.357Z,101826.06
2022-10-19T04:49:06.824Z,101826.13
2022-10-19T04:51:34.258Z,101823.63
2022-10-19T04:54:03.976Z,101823.63
2022-10-19T04:56:32.447Z,101825.47
2022-10-19T04:59:01.136Z,101832.75
2022-10-19T05:01:30.880Z,101823.81
2022-10-19T05:04:01.016Z,101825.56
2022-10-19T05:06:29.616Z,101828.25
2022-10-19T05:08:57.430Z,101830.06
2022-10-19T05:11:24.997Z,101831.03
2022-10-19T05:13:52.478Z,101832.88
2022-10-19T05:16:22.998Z,101834.78
2022-10-19T05:18:56.781Z,101831.16
2022-10-19T05:21:24.362Z,101831.41
2022-10-19T05:23:53.649Z,101835.75
2022-10-19T05:26:23.785Z,101829.38
2022-10-19T05:28:56.604Z,101827.78
2022-10-19T05:31:28.073Z,101827.84
2022-10-19T05:33:58.436Z,101822.66
2022-10-19T05:36:28.870Z,101823.63
2022-10-19T05:38:58.082Z,101819.28
2022-10-19T05:41:26.590Z,101821.91
2022-10-19T05:43:59.145Z,101816.59
2022-10-19T05:46:29.402Z,101817.66
2022-10-19T05:48:58.350Z,101810.63
2022-10-19T05:51:27.519Z,101808.91
2022-10-19T05:53:55.835Z,101815.25
2022-10-19T05:56:26.785Z,101824.28
2022-10-19T05:58:56.900Z,101819.75
2022-10-19T06:01:24.349Z,101821.50
2022-10-19T06:03:55.053Z,101832.16
2022-10-19T06:06:23.246Z,101833.13
2022-10-19T06:08:52.426Z,101823.22
2022-10-19T06:11:27.445Z,101824.06
2022-10-19T06:13:57.423Z,101825.81
2022-10-19T06:16:27.107Z,101822.28
2022-10-19T06:18:55.062Z,101828.50
2022-10-19T06:21:27.636Z,101824.84
2022-10-19T06:23:58.618Z,101838.25
2022-10-19T06:26:27.968Z,101831.03
2022-10-19T06:29:00.610Z,101834.56
2022-10-19T06:31:33.924Z,101847.06
2022-10-19T06:34:01.789Z,101841.69
2022-10-19T06:36:31.470Z,101849.56
2022-10-19T06:39:02.309Z,101857.66
2022-10-19T06:41:31.416Z,101855.81
2022-10-19T06:44:12.450Z,101856.59
2022-10-19T06:46:39.785Z,101852.00
2022-10-19T06:49:07.170Z,101856.31
2022-10-19T06:51:34.533Z,101858.06
2022-10-19T06:54:01.885Z,101855.19
2022-10-19T06:56:29.069Z,101865.66
2022-10-19T06:58:56.537Z,101861.06
2022-10-19T07:01:24.433Z,101855.56
2022-10-19T07:03:53.043Z,101867.88
2022-10-19T07:06:20.603Z,101867.78
2022-10-19T07:08:47.916Z,101858.66
2022-10-19T07:11:19.100Z,101860.28
2022-10-19T07:13:46.230Z,101864.53
2022-10-19T07:16:19.781Z,101874.22
2022-10-19T07:18:51.496Z,101868.78
2022-10-19T07:21:21.175Z,101868.47
2022-10-19T07:23:49.006Z,101875.41
2022-10-19T07:26:28.325Z,101870.91
2022-10-19T07:28:57.591Z,101872.53
2022-10-19T07:31:27.358Z,101870.59
2022-10-19T07:34:01.001Z,101874.94
2022-10-19T07:36:30.723Z,101879.28
2022-10-19T07:38:58.323Z,101878.88
2022-10-19T07:41:26.847Z,101883.19
2022-10-19T07:43:54.916Z,101891.28
2022-10-19T07:46:25.513Z,101893.59
2022-10-19T07:48:53.696Z,101897.84
2022-10-19T07:51:22.106Z,101890.25
2022-10-19T07:53:49.485Z,101881.25
2022-10-19T07:56:22.893Z,101888.22
2022-10-19T07:58:51.986Z,101880.63
2022-10-19T08:01:22.654Z,101891.59
2022-10-19T08:06:39.417Z,101894.19
2022-10-19T08:09:06.720Z,101888.28
2022-10-19T08:11:36.214Z,101894.28
2022-10-19T08:14:03.726Z,101901.06
2022-10-19T08:16:40.418Z,101901.53
2022-10-19T08:19:11.654Z,101892.00
2022-10-19T08:21:41.342Z,101888.03
2022-10-19T08:24:09.298Z,101886.78
2022-10-19T08:26:40.157Z,101876.31
2022-10-19T08:29:17.314Z,101880.72
2022-10-19T08:31:46.987Z,101880.78
2022-10-19T08:34:15.845Z,101881.03
2022-10-19T08:36:43.416Z,101881.28
2022-10-19T08:39:12.762Z,101887.06
2022-10-19T08:41:58.575Z,101884.38
2022-10-19T08:45:06.242Z,101878.34
2022-10-19T08:48:00.886Z,101877.78
2022-10-19T08:50:38.085Z,101884.41
2022-10-19T08:53:14.555Z,101874.75
2022-10-19T08:56:04.532Z,101867.00
2022-10-19T08:59:02.600Z,101868.16
2022-10-19T09:01:44.021Z,101869.47
2022-10-19T09:04:38.028Z,101863.38
2022-10-19T09:07:27.257Z,101851.19
2022-10-19T09:10:26.450Z,101859.72
2022-10-19T09:12:59.870Z,101859.38
2022-10-19T09:15:40.980Z,101854.38
2022-10-19T09:18:14.834Z,101849.28
2022-10-19T09:20:49.329Z,101854.03
2022-10-19T09:23:59.435Z,101853.53
2022-10-19T09:26:31.015Z,101858.41
2022-10-19T09:29:04.806Z,101852.41
2022-10-19T09:31:40.691Z,101857.34
2022-10-19T09:34:23.763Z,101845.94
2022-10-19T09:36:57.537Z,101854.81
2022-10-19T09:39:29.558Z,101845.13
2022-10-19T09:42:22.928Z,101851.72
2022-10-19T09:44:52.305Z,101852.09
2022-10-19T09:47:35.039Z,101841.66
2022-10-19T09:50:17.604Z,101845.75
2022-10-19T09:52:47.988Z,101858.56
2022-10-19T09:55:15.020Z,101860.75
2022-10-19T09:58:18.695Z,101854.63
2022-10-19T10:00:54.970Z,101850.72
2022-10-19T10:03:43.361Z,101850.97
2022-10-19T10:06:17.850Z,101847.53
2022-10-19T10:08:58.784Z,101851.72
2022-10-19T10:11:31.195Z,101852.00
2022-10-19T10:14:09.872Z,101850.75
2022-10-19T10:16:37.308Z,101848.91
2022-10-19T10:19:08.388Z,101845.09
2022-10-19T10:21:50.308Z,101848.44
2022-10-19T10:24:23.693Z,101844.22
2022-10-19T10:27:00.678Z,101839.81
2022-10-19T10:29:30.148Z,101823.81
2022-10-19T10:32:04.294Z,101829.59
2022-10-19T10:34:52.824Z,101823.78
2022-10-19T10:37:29.049Z,101831.41
2022-10-19T10:40:01.901Z,101817.84
2022-10-19T10:42:42.035Z,101818.09
2022-10-19T10:45:26.783Z,101813.13
2022-10-19T10:47:54.338Z,101816.94
2022-10-19T10:50:32.685Z,101814.84
2022-10-19T10:53:07.099Z,101803.22
2022-10-19T10:55:34.889Z,101803.41
2022-10-19T10:58:15.730Z,101802.31
2022-10-19T11:00:43.484Z,101797.13
2022-10-19T11:03:25.905Z,101791.88
2022-10-19T11:06:02.826Z,101793.81
2022-10-19T11:08:51.629Z,101787.88
2022-10-19T11:11:35.830Z,101780.31
2022-10-19T11:14:19.232Z,101777.06
2022-10-19T11:16:49.082Z,101772.72
2022-10-19T11:19:24.542Z,101759.56
2022-10-19T11:22:04.347Z,101764.47
2022-10-19T11:24:52.992Z,101764.03
2022-10-19T11:28:11.121Z,101758.34
2022-10-19T11:31:12.050Z,101760.41
2022-10-19T11:33:56.409Z,101750.81
2022-10-19T11:37:06.352Z,101744.75
2022-10-19T11:40:12.578Z,101749.38
2022-10-19T11:43:12.804Z,101745.66
2022-10-19T11:46:02.815Z,101740.38
2022-10-19T11:49:17.101Z,101740.09
2022-10-19T11:51:57.718Z,101738.09
2022-10-19T11:54:43.582Z,101733.97
2022-10-19T11:57:25.269Z,101730.44
2022-10-19T12:00:27.269Z,101717.81
2022-10-19T12:03:38.671Z,101726.84
2022-10-19T12:07:05.114Z,101714.72
2022-10-19T12:09:52.031Z,101711.03
2022-10-19T12:12:31.114Z,101708.41
2022-10-19T12:15:26.476Z,101692.53
2022-10-19T12:17:57.562Z,101689.22
2022-10-19T12:20:41.482Z,101694.09
2022-10-19T12:23:31.538Z,101690.34
2022-10-19T12:26:03.078Z,101683.47
2022-10-19T12:28:34.849Z,101672.97
2022-10-19T12:31:03.541Z,101678.13
2022-10-19T12:33:36.883Z,101672.38
2022-10-19T12:36:34.947Z,101664.78
2022-10-19T12:39:15.954Z,101663.78
2022-10-19T12:41:53.298Z,101658.34
2022-10-19T12:45:00.599Z,101652.59
2022-10-19T12:47:27.590Z,101651.41
2022-10-19T12:49:56.415Z,101641.13
2022-10-19T12:52:48.603Z,101633.94
2022-10-19T12:55:15.569Z,101630.94
2022-10-19T12:57:48.912Z,101623.59
2022-10-19T13:00:29.902Z,101623.00
2022-10-19T13:03:15.286Z,101615.94
2022-10-19T13:05:42.704Z,101613.63
2022-10-19T13:08:14.611Z,101611.03
2022-10-19T13:11:09.983Z,101604.94
2022-10-19T13:13:56.886Z,101600.19
2022-10-19T13:16:29.516Z,101607.53
2022-10-19T13:18:59.851Z,101595.28
2022-10-19T13:22:02.293Z,101596.56
2022-10-19T13:24:34.355Z,101597.41
2022-10-19T13:27:04.172Z,101590.81
2022-10-19T13:29:37.284Z,101593.06
2022-10-19T13:32:33.467Z,101593.47
2022-10-19T13:35:34.046Z,101590.25
2022-10-19T13:41:38.276Z,101594.50
2022-10-19T13:44:20.939Z,101590.84
2022-10-19T13:47:21.906Z,101584.59
2022-10-19T13:50:21.017Z,101580.72
2022-10-19T13:52:51.260Z,101589.03
2022-10-19T13:56:09.150Z,101580.84
2022-10-19T13:58:58.928Z,101578.69
2022-10-19T14:01:46.465Z,101592.97
2022-10-19T14:04:28.130Z,101583.03
2022-10-19T14:07:13.701Z,101582.34
2022-10-19T14:09:44.057Z,101577.88
2022-10-19T14:12:30.390Z,101581.66
2022-10-19T14:14:58.309Z,101573.47
2022-10-19T14:17:33.898Z,101580.78
2022-10-19T14:20:02.118Z,101578.91
2022-10-19T14:22:33.876Z,101576.19
2022-10-19T14:25:24.485Z,101576.81
2022-10-19T14:28:05.349Z,101572.16
2022-10-19T14:30:36.844Z,101566.25
2022-10-19T14:33:11.201Z,101568.59
2022-10-19T14:35:41.740Z,101558.16
2022-10-19T14:38:19.213Z,101552.00
2022-10-19T14:40:46.268Z,101553.16
2022-10-19T14:43:27.188Z,101553.47
2022-10-19T14:46:06.317Z,101549.34
2022-10-19T14:48:35.658Z,101553.97
2022-10-19T14:51:10.103Z,101551.69
2022-10-19T14:53:44.805Z,101550.09
2022-10-19T14:56:34.161Z,101556.75
2022-10-19T14:59:12.757Z,101557.34
2022-10-19T15:01:41.174Z,101556.81
2022-10-19T15:04:08.159Z,101553.19
2022-10-19T15:06:36.319Z,101549.78
2022-10-19T15:09:12.111Z,101544.47
2022-10-19T15:11:49.760Z,101545.66
2022-10-19T15:14:22.633Z,101550.53
2022-10-19T15:16:53.745Z,101530.06
2022-10-19T15:19:38.461Z,101527.34
2022-10-19T15:22:14.627Z,101535.69
2022-10-19T15:25:23.449Z,101519.75
2022-10-19T15:27:51.172Z,101529.44
2022-10-19T15:30:18.233Z,101533.13
2022-10-19T15:32:49.543Z,101525.09
2022-10-19T15:35:33.814Z,101532.72
2022-10-19T15:38:19.635Z,101522.25
2022-10-19T15:41:00.847Z,101535.19
2022-10-19T15:43:32.569Z,101531.03
2022-10-19T15:46:21.985Z,101531.34
2022-10-19T15:48:55.195Z,101528.06
2022-10-19T15:51:25.713Z,101522.91
2022-10-19T15:54:00.429Z,101528.66
2022-10-19T15:56:31.490Z,101526.22
2022-10-19T15:59:01.232Z,101521.25
2022-10-19T16:01:32.017Z,101529.88
2022-10-19T16:03:59.791Z,101520.44
2022-10-19T16:06:30.846Z,101520.00
2022-10-19T16:08:58.780Z,101521.50
2022-10-19T16:11:27.454Z,101522.06
2022-10-19T16:13:54.590Z,101525.38
2022-10-19T16:16:32.124Z,101521.38
2022-10-19T16:19:00.094Z,101524.81
2022-10-19T16:21:32.309Z,101516.22
2022-10-19T16:23:59.939Z,101519.53
2022-10-19T16:26:27.681Z,101522.69
2022-10-19T16:28:55.855Z,101529.72
2022-10-19T16:31:23.686Z,101533.88
2022-10-19T16:33:51.077Z,101525.44
2022-10-19T16:36:20.292Z,101538.59
2022-10-19T16:38:48.354Z,101532.88
2022-10-19T16:41:16.264Z,101538.03
2022-10-19T16:43:44.294Z,101532.16
2022-10-19T16:46:11.562Z,101540.72
2022-10-19T16:48:38.602Z,101536.75
2022-10-19T16:51:10.334Z,101537.97
2022-10-19T16:53:38.836Z,101542.13
2022-10-19T16:56:09.571Z,101544.56
2022-10-19T16:58:37.499Z,101554.97
2022-10-19T17:01:17.163Z,101551.97
2022-10-19T17:03:45.958Z,101557.94
2022-10-19T17:06:14.422Z,101562.91
2022-10-19T17:09:20.161Z,101558.78
2022-10-19T17:11:33.471Z,101558.94
2022-10-19T17:14:05.631Z,101560.16
2022-10-19T17:16:36.682Z,101565.91
2022-10-19T17:19:05.964Z,101574.34
2022-10-19T17:21:38.545Z,101568.28
2022-10-19T17:24:08.166Z,101573.28
2022-10-19T17:26:39.361Z,101563.56
2022-10-19T17:29:07.170Z,101566.53
2022-10-19T17:31:35.853Z,101574.09
2022-10-19T17:34:04.126Z,101572.50
2022-10-19T17:39:27.176Z,101574.03
2022-10-19T17:42:01.696Z,101572.56
2022-10-19T17:44:31.549Z,101575.56
2022-10-19T17:47:00.767Z,101580.25
2022-10-19T17:49:29.772Z,101579.66
2022-10-19T17:51:56.905Z,101581.78
2022-10-19T17:54:23.966Z,101582.06
2022-10-19T17:56:50.963Z,101575.03
2022-10-19T17:59:22.625Z,101584.31
2022-10-19T18:01:56.937Z,101583.00
2022-10-19T18:04:24.331Z,101586.84
2022-10-19T18:06:51.762Z,101583.53
2022-10-19T18:09:18.971Z,101582.94
2022-10-19T18:11:46.253Z,101581.50
2022-10-19T18:14:13.580Z,101588.03
2022-10-19T18:16:45.523Z,101588.28
2022-10-19T18:19:15.354Z,101589.66
2022-10-19T18:21:45.205Z,101604.50
2022-10-19T18:24:19.218Z,101597.63
2022-10-19T18:26:47.712Z,101602.28
2022-10-19T18:29:24.542Z,101594.41
2022-10-19T18:31:52.772Z,101607.50
2022-10-19T18:34:23.870Z,101609.59
2022-10-19T18:36:59.408Z,101610.88
2022-10-19T18:39:26.479Z,101618.22
2022-10-19T18:41:57.128Z,101612.19
2022-10-19T18:44:27.904Z,101615.91
2022-10-19T18:46:57.070Z,101612.72
2022-10-19T18:49:24.437Z,101611.84
2022-10-19T18:51:55.131Z,101610.28
2022-10-19T18:54:24.723Z,101613.50
2022-10-19T18:56:51.806Z,101620.03
2022-10-19T18:59:19.243Z,101609.44
2022-10-19T19:01:46.398Z,101619.69
2022-10-19T19:04:13.383Z,101620.78
2022-10-19T19:06:40.734Z,101621.19
2022-10-19T19:09:11.926Z,101620.44
2022-10-19T19:11:41.038Z,101619.69
2022-10-19T19:14:14.881Z,101614.41
2022-10-19T19:16:44.925Z,101610.84
2022-10-19T19:19:14.805Z,101614.66
2022-10-19T19:21:44.465Z,101610.25
2022-10-19T19:24:15.987Z,101613.06
2022-10-19T19:26:48.373Z,101615.31
2022-10-19T19:29:16.614Z,101618.00
2022-10-19T19:31:44.511Z,101613.69
2022-10-19T19:34:12.130Z,101614.81
2022-10-19T19:36:46.466Z,101612.09
2022-10-19T19:39:20.130Z,101607.91
2022-10-19T19:41:49.409Z,101607.16
2022-10-19T19:44:17.758Z,101610.28
2022-10-19T19:46:44.787Z,101618.50
2022-10-19T19:49:11.941Z,101629.56
2022-10-19T19:51:39.090Z,101627.97
2022-10-19T19:54:06.112Z,101631.66
2022-10-19T19:56:33.259Z,101630.06
2022-10-19T19:59:03.787Z,101644.75
2022-10-19T20:01:32.247Z,101643.00
2022-10-19T20:06:32.630Z,101637.56
2022-10-19T20:08:59.836Z,101639.56
2022-10-19T20:11:29.210Z,101648.84
2022-10-19T20:13:56.524Z,101638.41
2022-10-19T20:16:29.829Z,101638.28
2022-10-19T20:19:05.582Z,101635.84
2022-10-19T20:21:33.637Z,101644.31
2022-10-19T20:24:00.929Z,101645.31
2022-10-19T20:28:56.877Z,101646.53
2022-10-19T20:31:25.150Z,101644.94
2022-10-19T20:33:52.190Z,101656.09
2022-10-19T20:36:23.694Z,101654.38
2022-10-19T20:38:54.903Z,101650.06
2022-10-19T20:41:25.771Z,101653.75
2022-10-19T20:43:54.395Z,101658.41
2022-10-19T20:46:25.343Z,101651.28
2022-10-19T20:48:53.226Z,101648.72
2022-10-19T20:51:30.709Z,101648.81
2022-10-19T20:54:01.202Z,101641.09
2022-10-19T20:56:32.005Z,101653.63
2022-10-19T20:59:05.902Z,101653.09
2022-10-19T21:01:35.504Z,101656.94
2022-10-19T21:04:05.463Z,101658.03
2022-10-19T21:06:38.191Z,101659.25
2022-10-19T21:09:06.220Z,101661.19
2022-10-19T21:11:37.233Z,101651.38
2022-10-19T21:14:14.658Z,101652.34
2022-10-19T21:16:42.775Z,101655.03
2022-10-19T21:19:17.278Z,101648.91
2022-10-19T21:21:50.831Z,101652.69
2022-10-19T21:24:25.312Z,101654.78
2022-10-19T21:26:52.977Z,101654.16
2022-10-19T21:29:20.410Z,101665.22
2022-10-19T21:31:50.399Z,101669.00
2022-10-19T21:34:24.052Z,101659.91
2022-10-19T21:36:51.842Z,101669.09
2022-10-19T21:39:19.658Z,101679.06
2022-10-19T21:41:47.843Z,101678.34
2022-10-19T21:44:17.546Z,101684.59
2022-10-19T21:46:47.439Z,101684.59
2022-10-19T21:49:14.548Z,101690.25
2022-10-19T21:51:49.007Z,101683.97
2022-10-19T21:54:19.573Z,101687.75
2022-10-19T21:56:47.315Z,101688.84
2022-10-19T21:59:15.094Z,101681.97
2022-10-19T22:01:42.388Z,101695.66
2022-10-19T22:04:15.041Z,101694.06
2022-10-19T22:06:42.938Z,101693.19
2022-10-19T22:09:14.671Z,101690.84
2022-10-19T22:11:42.709Z,101685.53
2022-10-19T22:14:12.747Z,101683.91
2022-10-19T22:16:40.897Z,101694.72
2022-10-19T22:19:08.507Z,101686.63
2022-10-19T22:21:35.817Z,101693.88
2022-10-19T22:24:11.574Z,101682.34
2022-10-19T22:26:42.979Z,101689.78
2022-10-19T22:29:10.407Z,101679.97
2022-10-19T22:31:38.740Z,101684.50
2022-10-19T22:34:11.793Z,101685.50
2022-10-19T22:36:38.896Z,101679.56
2022-10-19T22:39:08.011Z,101679.78
2022-10-19T22:42:50.482Z,101677.31
2022-10-19T22:46:51.105Z,101682.94
2022-10-19T22:50:51.844Z,101685.97
2022-10-19T22:53:36.983Z,101671.84
2022-10-19T22:56:04.627Z,101674.53
2022-10-19T22:58:31.950Z,101678.97
2022-10-19T23:01:14.126Z,101679.81
2022-10-19T23:03:42.118Z,101679.81
2022-10-19T23:06:12.176Z,101686.09
2022-10-19T23:08:39.716Z,101700.34
2022-10-19T23:11:06.767Z,101700.56
2022-10-19T23:13:33.801Z,101704.25
2022-10-19T23:16:00.995Z,101707.19
2022-10-19T23:18:31.993Z,101710.84
2022-10-19T23:21:05.351Z,101699.19
2022-10-19T23:23:33.950Z,101702.84
2022-10-19T23:26:06.535Z,101710.09
2022-10-19T23:28:37.211Z,101709.34
2022-10-19T23:31:09.624Z,101710.31
2022-10-19T23:33:37.303Z,101711.31
2022-10-19T23:36:11.777Z,101708.59
2022-10-19T23:38:40.252Z,101718.53
2022-10-19T23:41:08.152Z,101716.94
2022-10-19T23:46:07.916Z,101717.16
2022-10-19T23:48:35.564Z,101719.09
2022-10-19T23:51:06.379Z,101717.38
2022-10-19T23:53:39.907Z,101713.03
2022-10-19T23:56:16.045Z,101717.59
2022-10-19T23:58:43.631Z,101711.63
